Time;durP1;ratioP1;P1;durP2;ratioP2;P2;SDS_P1;SDS_P2;PMS_P1;PMS_P2;Temp;Humidity;BMP_temperature;BMP_pressure;BME280_temperature;BME280_humidity;BME280_pressure;Samples;Min_cycle;Max_cycle;Signal;HPM_P1;HPM_P2
2023/10/24 00:01:30;;;;;;;4.43;4.00;;;;;;;10.79;100.00;100873.59;6244943;28;20228;-69
2023/10/24 00:04:51;;;;;;;5.23;4.73;;;;;;;10.80;100.00;100873.50;6248151;28;20886;-69
2023/10/24 00:08:13;;;;;;;5.03;4.53;;;;;;;10.80;100.00;100859.16;6249759;28;20255;-70
2023/10/24 00:11:34;;;;;;;7.57;4.20;;;;;;;10.80;100.00;100842.97;6257947;28;20598;-69
2023/10/24 00:14:56;;;;;;;4.83;4.33;;;;;;;10.80;100.00;100834.88;6248426;28;20606;-69
2023/10/24 00:18:16;;;;;;;5.00;4.50;;;;;;;10.80;100.00;100841.13;6253633;28;20233;-69
2023/10/24 00:21:37;;;;;;;4.77;4.30;;;;;;;10.83;100.00;100842.69;6258072;28;20228;-70
2023/10/24 00:25:00;;;;;;;8.80;5.73;;;;;;;10.84;100.00;100847.97;6255984;28;20345;-69
2023/10/24 00:28:21;;;;;;;5.50;5.00;;;;;;;10.87;100.00;100846.81;6254255;28;20413;-70
2023/10/24 00:31:42;;;;;;;5.30;4.43;;;;;;;10.92;100.00;100844.56;6252569;28;20228;-69
2023/10/24 00:35:03;;;;;;;6.50;5.80;;;;;;;10.95;100.00;100842.41;6252551;28;20232;-69
2023/10/24 00:38:24;;;;;;;7.27;6.57;;;;;;;11.00;100.00;100837.47;6250976;28;20252;-69
2023/10/24 00:41:46;;;;;;;6.67;5.97;;;;;;;10.93;100.00;100833.63;6252025;28;20571;-70
2023/10/24 00:45:08;;;;;;;6.17;4.90;;;;;;;11.02;100.00;100831.94;6251240;28;20251;-69
2023/10/24 00:48:30;;;;;;;5.40;4.87;;;;;;;11.01;100.00;100819.44;6250576;28;20264;-69
2023/10/24 00:51:51;;;;;;;6.20;5.57;;;;;;;10.95;100.00;100811.91;6253566;28;20243;-70
2023/10/24 00:55:14;;;;;;;6.83;5.87;;;;;;;11.02;100.00;100827.38;6248290;28;20334;-70
2023/10/24 00:58:38;;;;;;;6.07;5.33;;;;;;;10.98;100.00;100799.00;6246275;28;20244;-69
2023/10/24 01:01:59;;;;;;;7.00;5.77;;;;;;;11.00;100.00;100807.81;6254174;28;20599;-70
2023/10/24 01:05:20;;;;;;;5.90;5.40;;;;;;;11.06;100.00;100799.13;6252152;28;20223;-70
2023/10/24 01:08:41;;;;;;;6.30;5.67;;;;;;;11.09;100.00;100795.31;6243153;28;20236;-70
2023/10/24 01:12:03;;;;;;;5.83;5.30;;;;;;;11.07;100.00;100791.91;6262279;28;20232;-70
2023/10/24 01:15:25;;;;;;;7.87;5.97;;;;;;;11.09;100.00;100796.19;6256352;28;20232;-70
2023/10/24 01:18:46;;;;;;;6.27;5.67;;;;;;;11.11;100.00;100791.50;6253501;28;20224;-68
2023/10/24 01:22:08;;;;;;;5.67;5.23;;;;;;;11.11;100.00;100788.78;6265197;28;20332;-69
2023/10/24 01:25:29;;;;;;;11.27;7.33;;;;;;;11.11;100.00;100777.13;6254938;28;20809;-69
2023/10/24 01:28:50;;;;;;;6.17;5.57;;;;;;;11.06;100.00;100772.16;6258635;28;20556;-69
2023/10/24 01:32:11;;;;;;;6.50;5.67;;;;;;;11.13;100.00;100770.63;6255006;28;20235;-69
2023/10/24 01:35:33;;;;;;;8.67;6.27;;;;;;;11.14;100.00;100779.53;6252688;28;20883;-69
2023/10/24 01:38:56;;;;;;;5.07;4.63;;;;;;;11.16;100.00;100775.72;6257562;28;20231;-69
2023/10/24 01:42:17;;;;;;;5.57;5.00;;;;;;;11.15;100.00;100774.03;6256810;28;20228;-70
2023/10/24 01:45:38;;;;;;;5.60;5.10;;;;;;;11.17;100.00;100772.03;6255675;28;20228;-70
2023/10/24 01:48:59;;;;;;;5.77;5.23;;;;;;;11.16;100.00;100762.22;6251764;28;20294;-70
2023/10/24 01:52:20;;;;;;;8.03;5.20;;;;;;;11.16;100.00;100748.72;6258534;28;20311;-69
2023/10/24 01:55:42;;;;;;;6.67;5.13;;;;;;;11.19;100.00;100751.16;6252548;28;20236;-69
2023/10/24 01:59:04;;;;;;;6.70;5.47;;;;;;;11.22;100.00;100753.53;6254776;28;20232;-69
2023/10/24 02:02:26;;;;;;;6.10;5.40;;;;;;;11.24;100.00;100748.84;6254817;28;20224;-70
2023/10/24 02:05:47;;;;;;;7.83;5.40;;;;;;;11.20;100.00;100738.53;6252663;28;20510;-69
2023/10/24 02:09:08;;;;;;;6.90;6.10;;;;;;;11.24;100.00;100724.56;6259471;28;20231;-69
2023/10/24 02:12:30;;;;;;;6.33;5.73;;;;;;;11.23;100.00;100714.78;6260531;28;20224;-70
2023/10/24 02:15:53;;;;;;;6.63;6.03;;;;;;;11.20;100.00;100706.16;6260841;28;20235;-69
2023/10/24 02:19:14;;;;;;;4.77;4.40;;;;;;;11.17;100.00;100695.63;6259343;28;20563;-69
2023/10/24 02:22:35;;;;;;;5.67;5.07;;;;;;;11.18;100.00;100681.97;6257736;28;20231;-69
2023/10/24 02:25:56;;;;;;;5.47;4.97;;;;;;;11.17;100.00;100677.59;6258270;28;20227;-68
2023/10/24 02:29:18;;;;;;;6.00;5.40;;;;;;;11.19;100.00;100663.94;6247149;28;20239;-69
2023/10/24 02:32:39;;;;;;;5.17;4.77;;;;;;;11.18;100.00;100654.16;6253181;28;20307;-70
2023/10/24 02:36:07;;;;;;;6.63;5.73;;;;;;;11.19;100.00;100634.28;6257416;28;20260;-69
2023/10/24 02:39:27;;;;;;;8.47;5.10;;;;;;;11.24;100.00;100632.00;6254822;28;20235;-69
2023/10/24 02:42:50;;;;;;;5.87;4.57;;;;;;;11.18;100.00;100619.91;6259802;28;20224;-70
2023/10/24 02:46:12;;;;;;;4.77;4.37;;;;;;;11.21;100.00;100627.75;6250561;28;20247;-69
2023/10/24 02:49:33;;;;;;;4.83;4.40;;;;;;;11.24;100.00;100626.59;6249702;28;20232;-69
2023/10/24 02:52:54;;;;;;;5.87;4.83;;;;;;;11.27;100.00;100635.25;6258402;28;20232;-70
2023/10/24 02:56:15;;;;;;;4.27;3.87;;;;;;;11.30;100.00;100638.66;6259380;28;20238;-69
2023/10/24 02:59:36;;;;;;;4.83;4.43;;;;;;;11.20;100.00;100638.69;6255239;28;20231;-68
2023/10/24 03:02:58;;;;;;;6.57;4.83;;;;;;;11.17;100.00;100631.72;6253254;28;20559;-69
2023/10/24 03:06:19;;;;;;;8.03;5.90;;;;;;;11.24;100.00;100630.13;6252523;28;20247;-69
2023/10/24 03:09:40;;;;;;;6.47;5.50;;;;;;;11.19;100.00;100624.34;6255150;28;20342;-69
2023/10/24 03:13:02;;;;;;;5.97;5.37;;;;;;;11.23;100.00;100616.78;6259585;28;20660;-69
2023/10/24 03:16:23;;;;;;;5.00;4.60;;;;;;;11.27;100.00;100605.56;6255519;28;20236;-69
2023/10/24 03:19:46;;;;;;;5.70;5.27;;;;;;;11.31;100.00;100594.44;6250474;28;20304;-69
2023/10/24 03:23:08;;;;;;;10.77;6.07;;;;;;;11.32;100.00;100574.59;6259039;28;20261;-69
2023/10/24 03:26:29;;;;;;;5.53;4.70;;;;;;;11.27;100.00;100578.56;6257208;28;20617;-69
2023/10/24 03:29:51;;;;;;;7.13;4.93;;;;;;;11.29;100.00;100575.72;6247634;28;20231;-69
2023/10/24 03:33:11;;;;;;;7.23;5.40;;;;;;;11.21;100.00;100564.81;6250818;28;20584;-69
2023/10/24 03:36:34;;;;;;;5.93;5.33;;;;;;;11.21;100.00;100554.88;6251051;28;20239;-69
2023/10/24 03:39:55;;;;;;;7.90;5.87;;;;;;;11.13;100.00;100562.88;6251979;28;20231;-69
2023/10/24 03:43:16;;;;;;;6.93;4.93;;;;;;;11.23;100.00;100566.38;6251990;28;20224;-69
2023/10/24 03:46:36;;;;;;;5.60;5.00;;;;;;;11.18;100.00;100563.25;6252268;28;20630;-69
2023/10/24 03:49:57;;;;;;;5.73;5.17;;;;;;;11.20;100.00;100569.38;6252582;28;20310;-69
2023/10/24 03:53:20;;;;;;;5.43;4.93;;;;;;;11.21;100.00;100564.81;6259415;28;20232;-69
2023/10/24 03:56:42;;;;;;;7.20;5.17;;;;;;;11.22;100.00;100558.44;6253872;28;20236;-69
2023/10/24 04:00:07;;;;;;;8.70;6.07;;;;;;;11.15;100.00;100560.03;6253263;28;20243;-68
2023/10/24 04:03:34;;;;;;;6.50;5.90;;;;;;;11.19;100.00;100547.94;6253735;28;20550;-68
2023/10/24 04:06:55;;;;;;;5.20;4.80;;;;;;;11.18;100.00;100544.38;6255887;28;20318;-69
2023/10/24 04:10:17;;;;;;;5.70;5.23;;;;;;;11.14;100.00;100531.31;6255502;28;20223;-69
2023/10/24 04:13:38;;;;;;;6.50;4.80;;;;;;;11.16;100.00;100530.19;6250964;28;20610;-69
2023/10/24 04:16:59;;;;;;;5.27;4.87;;;;;;;11.16;100.00;100521.22;6252471;28;20243;-69
2023/10/24 04:20:20;;;;;;;4.40;4.07;;;;;;;11.20;100.00;100525.38;6255838;28;21067;-69
2023/10/24 04:23:42;;;;;;;6.67;5.97;;;;;;;11.23;100.00;100523.22;6255091;28;20247;-69
2023/10/24 04:27:04;;;;;;;6.20;5.70;;;;;;;11.17;100.00;100510.31;6252556;28;20228;-69
2023/10/24 04:30:26;;;;;;;6.27;5.70;;;;;;;11.15;100.00;100514.16;6247584;28;20224;-69
2023/10/24 04:33:47;;;;;;;5.40;4.90;;;;;;;11.12;100.00;100518.00;6253675;28;20227;-69
2023/10/24 04:37:08;;;;;;;6.53;5.97;;;;;;;11.18;100.00;100517.41;6247350;28;20334;-69
2023/10/24 04:40:28;;;;;;;5.97;5.33;;;;;;;11.20;100.00;100501.09;6252671;28;20232;-70
2023/10/24 04:43:51;;;;;;;5.63;4.40;;;;;;;11.20;100.00;100493.00;6248521;28;20237;-69
2023/10/24 04:47:12;;;;;;;5.63;5.13;;;;;;;11.22;100.00;100489.13;6247894;28;20331;-70
2023/10/24 04:50:38;;;;;;;6.60;5.80;;;;;;;11.20;100.00;100485.72;6233840;28;20287;-72
2023/10/24 04:53:58;;;;;;;6.13;5.53;;;;;;;11.28;100.00;100482.28;6248383;28;20223;-69
2023/10/24 04:57:20;;;;;;;5.87;5.30;;;;;;;11.21;100.00;100491.97;6251724;28;20508;-72
2023/10/24 05:00:42;;;;;;;4.67;4.27;;;;;;;11.21;100.00;100487.44;6250559;28;20220;-72
2023/10/24 05:04:03;;;;;;;5.67;5.17;;;;;;;11.24;100.00;100480.91;6251485;28;20617;-72
2023/10/24 05:07:24;;;;;;;6.57;6.00;;;;;;;11.21;100.00;100484.75;6255564;28;20232;-73
2023/10/24 05:10:47;;;;;;;6.53;5.93;;;;;;;11.17;100.00;100494.13;6251904;28;20235;-72
2023/10/24 05:14:08;;;;;;;7.07;6.27;;;;;;;11.19;100.00;100475.94;6241913;28;20231;-72
2023/10/24 05:17:30;;;;;;;5.77;5.20;;;;;;;11.24;100.00;100449.34;6250474;28;20552;-73
2023/10/24 05:20:51;;;;;;;7.27;5.47;;;;;;;11.25;100.00;100453.75;6259299;28;20236;-72
2023/10/24 05:24:11;;;;;;;5.40;4.87;;;;;;;11.20;100.00;100452.53;6249870;28;20248;-71
2023/10/24 05:27:32;;;;;;;6.57;5.97;;;;;;;11.21;100.00;100459.59;6258204;28;20227;-72
2023/10/24 05:30:54;;;;;;;7.03;6.30;;;;;;;11.27;100.00;100462.53;6255478;28;20247;-72
2023/10/24 05:34:16;;;;;;;7.47;5.77;;;;;;;11.32;100.00;100455.84;6253525;28;20589;-71
2023/10/24 05:37:37;;;;;;;6.10;5.50;;;;;;;11.35;100.00;100460.94;6248273;28;20590;-71
2023/10/24 05:40:58;;;;;;;5.47;4.97;;;;;;;11.31;100.00;100464.94;6251006;28;20232;-72
2023/10/24 05:44:19;;;;;;;5.90;5.37;;;;;;;11.31;100.00;100464.94;6259029;28;20232;-71
2023/10/24 05:47:40;;;;;;;5.40;4.93;;;;;;;11.23;100.00;100447.66;6251975;28;20232;-72
2023/10/24 05:51:02;;;;;;;5.40;4.90;;;;;;;11.23;100.00;100447.66;6248357;28;20228;-72
2023/10/24 05:54:24;;;;;;;6.73;5.30;;;;;;;11.11;100.00;100459.66;6252288;28;20243;-72
2023/10/24 05:57:44;;;;;;;6.00;5.50;;;;;;;10.97;100.00;100468.22;6250043;28;20240;-72
2023/10/24 06:01:07;;;;;;;6.17;5.57;;;;;;;11.07;100.00;100449.31;6250447;28;20224;-71
2023/10/24 06:04:28;;;;;;;8.10;5.60;;;;;;;11.10;100.00;100449.84;6257476;28;20605;-72
2023/10/24 06:07:51;;;;;;;5.93;4.67;;;;;;;11.06;100.00;100447.59;6253378;28;20236;-72
2023/10/24 06:11:15;;;;;;;6.47;5.53;;;;;;;11.06;100.00;100453.00;6249094;28;20224;-72
2023/10/24 06:14:36;;;;;;;6.33;5.20;;;;;;;11.05;100.00;100456.72;6250634;28;20240;-73
2023/10/24 06:17:57;;;;;;;6.77;6.07;;;;;;;11.01;100.00;100463.41;6262233;28;20231;-72
2023/10/24 06:21:18;;;;;;;6.53;5.80;;;;;;;11.08;100.00;100456.38;6257619;28;20342;-72
2023/10/24 06:24:40;;;;;;;6.30;5.73;;;;;;;11.04;100.00;100455.00;6261894;28;20572;-71
2023/10/24 06:28:01;;;;;;;7.57;6.77;;;;;;;11.11;100.00;100448.00;6253078;28;20232;-72
2023/10/24 06:31:22;;;;;;;7.30;6.60;;;;;;;11.10;100.00;100436.38;6254017;28;20224;-72
2023/10/24 06:34:43;;;;;;;6.40;5.80;;;;;;;11.13;100.00;100432.53;6258484;28;20227;-71
2023/10/24 06:38:04;;;;;;;8.43;6.70;;;;;;;11.10;100.00;100422.88;6262754;28;20247;-72
2023/10/24 06:41:26;;;;;;;7.33;6.17;;;;;;;11.10;100.00;100425.56;6257273;28;20229;-72
2023/10/24 06:44:47;;;;;;;6.90;6.27;;;;;;;11.21;100.00;100414.59;6261450;28;20231;-72
2023/10/24 06:48:08;;;;;;;7.87;7.17;;;;;;;11.19;100.00;100413.88;6254690;28;20236;-72
2023/10/24 06:51:29;;;;;;;7.87;6.97;;;;;;;11.24;100.00;100419.66;6252888;28;20807;-73
2023/10/24 06:54:51;;;;;;;9.63;5.97;;;;;;;11.25;100.00;100425.91;6258058;28;20634;-72
2023/10/24 06:58:13;;;;;;;7.03;5.87;;;;;;;11.21;100.00;100421.81;6256474;28;20897;-73
2023/10/24 07:01:34;;;;;;;9.30;7.03;;;;;;;11.12;100.00;100418.19;6253240;28;20233;-73
2023/10/24 07:04:55;;;;;;;8.07;7.03;;;;;;;11.29;100.00;100421.91;6246001;28;20233;-72
2023/10/24 07:08:16;;;;;;;9.10;6.03;;;;;;;11.24;100.00;100418.84;6255932;28;20231;-72
2023/10/24 07:11:37;;;;;;;9.90;7.63;;;;;;;11.19;100.00;100404.94;6252716;28;20315;-72
2023/10/24 07:15:00;;;;;;;11.20;7.97;;;;;;;11.23;100.00;100391.00;6253179;28;20240;-73
2023/10/24 07:18:21;;;;;;;7.43;6.50;;;;;;;11.38;100.00;100399.41;6255300;28;20315;-72
2023/10/24 07:21:41;;;;;;;7.33;6.63;;;;;;;11.42;100.00;100398.09;6256795;28;20608;-72
2023/10/24 07:25:03;;;;;;;8.07;7.37;;;;;;;11.44;100.00;100412.28;6253148;28;20299;-72
2023/10/24 07:28:24;;;;;;;8.73;7.97;;;;;;;11.39;100.00;100409.19;6249710;28;20303;-72
2023/10/24 07:31:46;;;;;;;7.67;6.87;;;;;;;11.32;100.00;100413.53;6255329;28;20251;-72
2023/10/24 07:35:08;;;;;;;7.77;6.97;;;;;;;11.36;100.00;100397.88;6251654;28;20511;-71
2023/10/24 07:38:28;;;;;;;7.87;7.17;;;;;;;11.34;100.00;100416.91;6256674;28;21006;-71
2023/10/24 07:41:50;;;;;;;9.07;8.23;;;;;;;11.30;100.00;100431.72;6249147;28;20243;-72
2023/10/24 07:45:12;;;;;;;8.77;7.93;;;;;;;11.20;100.00;100433.63;6258748;28;20235;-73
2023/10/24 07:48:35;;;;;;;8.77;7.33;;;;;;;11.22;100.00;100435.16;6257772;28;20240;-72
2023/10/24 07:51:57;;;;;;;7.23;6.63;;;;;;;11.19;100.00;100426.53;6259623;28;20240;-72
2023/10/24 07:55:18;;;;;;;10.47;6.37;;;;;;;11.19;100.00;100430.06;6257046;28;20959;-71
2023/10/24 07:58:39;;;;;;;8.03;6.90;;;;;;;11.17;100.00;100421.28;6245265;28;20232;-71
2023/10/24 08:02:00;;;;;;;7.17;6.47;;;;;;;11.21;100.00;100401.09;6246330;28;20319;-71
2023/10/24 08:05:22;;;;;;;8.63;7.53;;;;;;;11.26;100.00;100416.84;6251844;28;20228;-71
2023/10/24 08:08:44;;;;;;;7.83;6.80;;;;;;;11.34;100.00;100414.22;6246839;28;20224;-72
2023/10/24 08:12:06;;;;;;;9.27;7.23;;;;;;;11.24;100.00;100408.88;6254335;28;20232;-72
2023/10/24 08:15:27;;;;;;;8.87;7.07;;;;;;;11.42;100.00;100405.34;6252607;28;20282;-72
2023/10/24 08:18:48;;;;;;;8.33;7.63;;;;;;;11.34;100.00;100391.78;6253793;28;20252;-72
2023/10/24 08:22:10;;;;;;;7.93;7.13;;;;;;;11.35;100.00;100394.31;6238753;28;20224;-72
2023/10/24 08:25:32;;;;;;;6.77;6.13;;;;;;;11.31;100.00;100394.75;6250570;28;20228;-72
2023/10/24 08:28:53;;;;;;;8.00;6.77;;;;;;;11.46;100.00;100393.25;6259526;28;20228;-72
2023/10/24 08:32:14;;;;;;;7.87;7.07;;;;;;;11.28;100.00;100399.47;6261869;28;20230;-73
2023/10/24 08:35:35;;;;;;;8.77;6.87;;;;;;;11.27;100.00;100392.38;6247701;28;20514;-72
2023/10/24 08:38:58;;;;;;;7.07;6.37;;;;;;;11.22;100.00;100394.69;6261818;28;20235;-72
2023/10/24 08:42:19;;;;;;;8.13;7.30;;;;;;;11.33;100.00;100382.81;6252875;28;20236;-72
2023/10/24 08:45:40;;;;;;;9.63;6.83;;;;;;;11.26;100.00;100379.88;6255751;28;20243;-73
2023/10/24 08:49:04;;;;;;;7.70;6.83;;;;;;;11.19;100.00;100391.44;6256507;28;20227;-72
2023/10/24 08:52:25;;;;;;;7.10;6.50;;;;;;;11.17;100.00;100388.91;6257548;28;20235;-73
2023/10/24 08:55:51;;;;;;;11.13;8.07;;;;;;;11.25;100.00;100372.81;6253337;28;20232;-73
2023/10/24 08:59:13;;;;;;;8.20;7.43;;;;;;;11.45;100.00;100375.38;6257528;28;20615;-72
2023/10/24 09:02:35;;;;;;;7.90;7.17;;;;;;;11.39;100.00;100381.38;6253403;28;20220;-72
2023/10/24 09:05:58;;;;;;;8.63;7.13;;;;;;;11.32;100.00;100377.59;6248479;28;20247;-72
2023/10/24 09:09:19;;;;;;;8.70;6.53;;;;;;;11.35;100.00;100367.31;6254676;28;20239;-73
2023/10/24 09:12:41;;;;;;;9.80;8.80;;;;;;;11.61;100.00;100354.75;6255294;28;20602;-72
2023/10/24 09:16:06;;;;;;;7.80;7.00;;;;;;;11.61;100.00;100351.22;6255402;28;20251;-72
2023/10/24 09:19:27;;;;;;;10.17;9.37;;;;;;;11.74;100.00;100352.56;6256252;28;20244;-72
2023/10/24 09:22:48;;;;;;;6.63;5.97;;;;;;;11.61;100.00;100345.81;6249699;28;20223;-72
2023/10/24 09:26:11;;;;;;;7.23;6.43;;;;;;;11.69;100.00;100348.59;6254091;28;20320;-73
2023/10/24 09:29:33;;;;;;;9.43;8.53;;;;;;;11.72;100.00;100354.53;6256200;28;20224;-73
2023/10/24 09:32:54;;;;;;;7.43;6.53;;;;;;;11.77;100.00;100356.78;6246494;28;20232;-73
2023/10/24 09:36:24;;;;;;;8.43;6.13;;;;;;;11.87;100.00;100350.28;6243185;28;20223;-72
2023/10/24 09:39:55;;;;;;;8.03;7.33;;;;;;;11.79;100.00;100349.34;6261922;28;20231;-73
2023/10/24 09:43:20;;;;;;;6.17;5.63;;;;;;;11.78;100.00;100355.78;6259534;28;20313;-73
2023/10/24 09:46:44;;;;;;;8.20;7.50;;;;;;;11.80;100.00;100348.38;6257072;28;20276;-73
2023/10/24 09:50:07;;;;;;;8.83;7.53;;;;;;;11.84;100.00;100350.59;6258996;28;20228;-73
2023/10/24 09:53:28;;;;;;;10.00;7.53;;;;;;;11.72;100.00;100357.22;6264368;28;20232;-72
2023/10/24 09:56:50;;;;;;;9.40;7.37;;;;;;;11.76;100.00;100364.03;6261307;28;20508;-72
2023/10/24 10:00:12;;;;;;;8.07;7.37;;;;;;;11.70;100.00;100370.03;6258399;28;20592;-73
2023/10/24 10:03:35;;;;;;;7.57;6.87;;;;;;;11.74;100.00;100370.59;6258447;28;20326;-72
2023/10/24 10:06:56;;;;;;;8.23;7.43;;;;;;;11.75;100.00;100372.28;6263172;28;20239;-72
2023/10/24 10:10:17;;;;;;;8.27;7.47;;;;;;;11.79;100.00;100366.41;6257332;28;20315;-73
2023/10/24 10:13:42;;;;;;;8.47;7.70;;;;;;;11.89;100.00;100374.44;6264384;28;20232;-72
2023/10/24 10:17:14;;;;;;;9.73;7.87;;;;;;;11.93;100.00;100363.16;6264989;28;20236;-72
2023/10/24 10:20:55;;;;;;;9.03;8.20;;;;;;;12.17;100.00;100370.59;6262853;28;20235;-72
2023/10/24 10:24:36;;;;;;;8.43;7.43;;;;;;;12.09;100.00;100362.44;6264007;28;20243;-72
2023/10/24 10:28:13;;;;;;;13.33;8.23;;;;;;;12.10;100.00;100349.78;6254933;28;20319;-72
2023/10/24 10:31:50;;;;;;;8.43;7.63;;;;;;;11.94;100.00;100350.50;6261313;28;20232;-72
2023/10/24 10:35:12;;;;;;;8.27;7.40;;;;;;;11.96;100.00;100348.47;6259756;28;20231;-72
2023/10/24 10:38:41;;;;;;;7.90;7.30;;;;;;;12.07;100.00;100347.38;6253492;28;20560;-71
2023/10/24 10:42:02;;;;;;;9.03;8.03;;;;;;;12.17;100.00;100345.41;6256585;28;20235;-73
2023/10/24 10:45:24;;;;;;;8.07;7.37;;;;;;;12.32;100.00;100341.97;6262184;28;20232;-73
2023/10/24 10:48:45;;;;;;;7.90;7.10;;;;;;;12.28;100.00;100348.72;6260872;28;20579;-71
2023/10/24 10:52:12;;;;;;;9.50;8.53;;;;;;;12.28;100.00;100346.00;6260586;28;20236;-72
2023/10/24 10:55:45;;;;;;;8.10;7.43;;;;;;;12.39;100.00;100343.00;6261157;28;20319;-72
2023/10/24 10:59:31;;;;;;;9.03;8.13;;;;;;;12.42;100.00;100334.59;6257095;28;20236;-72
2023/10/24 11:03:06;;;;;;;11.60;8.90;;;;;;;12.58;100.00;100331.94;6254090;28;20346;-73
2023/10/24 11:06:29;;;;;;;8.10;7.40;;;;;;;12.62;100.00;100322.50;6258214;28;20559;-72
2023/10/24 11:09:50;;;;;;;8.80;8.00;;;;;;;12.71;100.00;100323.38;6256384;28;20239;-72
2023/10/24 11:13:31;;;;;;;9.53;7.30;;;;;;;12.73;100.00;100316.81;6251300;28;20529;-73
2023/10/24 11:16:53;;;;;;;12.13;7.53;;;;;;;12.58;100.00;100331.94;6255515;28;20231;-73
2023/10/24 11:20:14;;;;;;;7.37;6.60;;;;;;;12.66;100.00;100320.34;6261696;28;20247;-73
2023/10/24 11:23:35;;;;;;;8.13;7.33;;;;;;;12.67;100.00;100312.06;6254831;28;20223;-73
2023/10/24 11:26:57;;;;;;;8.27;7.47;;;;;;;12.76;100.00;100305.69;6256413;28;20231;-72
2023/10/24 11:30:19;;;;;;;8.43;7.33;;;;;;;12.86;100.00;100305.53;6256213;28;20223;-72
2023/10/24 11:33:40;;;;;;;9.13;7.57;;;;;;;12.71;100.00;100294.50;6261780;28;20243;-72
2023/10/24 11:37:01;;;;;;;8.23;7.47;;;;;;;12.92;100.00;100282.34;6255768;28;20223;-72
2023/10/24 11:40:22;;;;;;;9.27;6.77;;;;;;;12.97;100.00;100283.56;6243939;28;20227;-73
2023/10/24 11:43:47;;;;;;;14.53;7.33;;;;;;;12.95;100.00;100282.03;6253335;28;20331;-73
2023/10/24 11:47:16;;;;;;;7.73;7.10;;;;;;;12.96;100.00;100281.00;6241639;28;20231;-72
2023/10/24 11:50:38;;;;;;;9.00;6.37;;;;;;;12.88;100.00;100283.72;6255692;28;20320;-72
2023/10/24 11:54:02;;;;;;;6.63;6.03;;;;;;;12.70;100.00;100302.78;6258904;28;20235;-72
2023/10/24 11:57:23;;;;;;;7.23;6.57;;;;;;;12.85;100.00;100295.69;6252936;28;20252;-73
2023/10/24 12:00:44;;;;;;;8.50;6.73;;;;;;;12.71;100.00;100302.59;6250703;28;20251;-72
2023/10/24 12:04:07;;;;;;;7.03;6.33;;;;;;;12.84;100.00;100305.69;6259877;28;20312;-72
2023/10/24 12:07:27;;;;;;;7.67;6.63;;;;;;;12.93;100.00;100303.00;6254923;28;20512;-72
2023/10/24 12:10:53;;;;;;;9.13;6.63;;;;;;;12.78;100.00;100313.63;6254737;28;20220;-72
2023/10/24 12:14:14;;;;;;;9.23;8.33;;;;;;;12.76;100.00;100291.31;6247813;28;20605;-72
2023/10/24 12:17:35;;;;;;;6.90;6.20;;;;;;;12.84;100.00;100288.59;6253958;28;20224;-72
2023/10/24 12:20:58;;;;;;;7.60;6.87;;;;;;;12.66;100.00;100291.41;6260509;28;20807;-72
2023/10/24 12:24:19;;;;;;;6.20;5.60;;;;;;;12.81;100.00;100287.06;6254465;28;20227;-72
2023/10/24 12:27:40;;;;;;;7.80;6.27;;;;;;;12.93;100.00;100273.25;6259011;28;20310;-73
2023/10/24 12:31:01;;;;;;;7.03;6.47;;;;;;;13.05;100.00;100266.53;6252175;28;20225;-72
2023/10/24 12:34:22;;;;;;;6.70;6.20;;;;;;;12.92;100.00;100266.97;6253888;28;20643;-73
2023/10/24 12:37:44;;;;;;;8.33;6.17;;;;;;;12.96;100.00;100257.53;6258559;28;20223;-72
2023/10/24 12:41:05;;;;;;;6.23;5.73;;;;;;;13.11;100.00;100250.47;6251129;28;20341;-73
2023/10/24 12:44:26;;;;;;;6.70;5.23;;;;;;;13.13;100.00;100247.59;6254575;28;20243;-72
2023/10/24 12:47:48;;;;;;;7.87;7.17;;;;;;;13.03;100.00;100252.28;6256020;28;20232;-72
2023/10/24 12:51:08;;;;;;;13.07;6.17;;;;;;;12.98;100.00;100250.09;6257222;28;20301;-72
2023/10/24 12:54:30;;;;;;;6.83;6.23;;;;;;;13.07;100.00;100246.41;6256428;28;20593;-72
2023/10/24 12:57:51;;;;;;;9.63;7.33;;;;;;;13.05;100.00;100244.88;6244517;28;20276;-73
2023/10/24 13:01:12;;;;;;;6.13;5.57;;;;;;;13.05;100.00;100242.19;6252409;28;20236;-73
2023/10/24 13:04:33;;;;;;;7.80;5.73;;;;;;;12.93;100.00;100232.66;6254963;28;20231;-73
2023/10/24 13:07:57;;;;;;;6.70;5.70;;;;;;;12.82;100.00;100231.97;6247775;28;20247;-72
2023/10/24 13:11:19;;;;;;;7.33;6.03;;;;;;;12.84;100.00;100232.66;6258388;28;20601;-73
2023/10/24 13:14:40;;;;;;;7.50;5.57;;;;;;;12.74;100.00;100239.22;6262616;28;20228;-73
2023/10/24 13:18:01;;;;;;;7.10;6.40;;;;;;;12.79;100.00;100243.13;6262676;28;20231;-73
2023/10/24 13:21:22;;;;;;;7.70;7.03;;;;;;;12.84;100.00;100235.38;6264278;28;20233;-73
2023/10/24 13:24:43;;;;;;;7.10;6.40;;;;;;;12.93;100.00;100238.06;6262481;28;20590;-73
2023/10/24 13:28:05;;;;;;;6.87;5.77;;;;;;;13.00;100.00;100236.38;6258701;28;20509;-72
2023/10/24 13:31:26;;;;;;;7.50;5.27;;;;;;;12.99;100.00;100237.41;6260991;28;20228;-71
2023/10/24 13:34:47;;;;;;;6.20;5.33;;;;;;;12.97;100.00;100237.59;6265454;28;20231;-71
2023/10/24 13:38:08;;;;;;;6.07;5.47;;;;;;;12.97;100.00;100229.47;6261298;28;20224;-72
2023/10/24 13:41:29;;;;;;;6.40;4.97;;;;;;;12.98;100.00;100233.00;6259453;28;20232;-73
2023/10/24 13:44:51;;;;;;;6.20;5.57;;;;;;;13.07;100.00;100227.47;6255430;28;20274;-73
2023/10/24 13:48:12;;;;;;;6.50;5.70;;;;;;;13.04;100.00;100224.22;6257537;28;20860;-73
2023/10/24 13:51:33;;;;;;;8.33;5.33;;;;;;;12.91;100.00;100224.72;6261462;28;20235;-72
2023/10/24 13:54:54;;;;;;;6.07;5.47;;;;;;;12.90;100.00;100217.59;6262419;28;20224;-74
2023/10/24 13:58:15;;;;;;;6.27;5.67;;;;;;;12.98;100.00;100219.47;6242047;28;20232;-73
2023/10/24 14:01:39;;;;;;;9.50;6.23;;;;;;;12.94;100.00;100215.41;6255999;28;20596;-73
2023/10/24 14:05:00;;;;;;;9.03;7.00;;;;;;;13.02;100.00;100213.56;6255505;28;20223;-73
2023/10/24 14:08:20;;;;;;;9.97;8.80;;;;;;;13.05;100.00;100210.56;6262969;28;20236;-73
2023/10/24 14:11:42;;;;;;;6.87;6.10;;;;;;;13.03;100.00;100209.00;6263518;28;20225;-73
2023/10/24 14:15:03;;;;;;;5.70;5.10;;;;;;;12.94;100.00;100215.41;6258229;28;20511;-73
2023/10/24 14:18:25;;;;;;;11.47;5.97;;;;;;;12.91;100.00;100203.09;6243928;28;20318;-74
2023/10/24 14:21:46;;;;;;;5.77;5.27;;;;;;;12.75;100.00;100209.31;6261816;28;20641;-74
2023/10/24 14:25:09;;;;;;;5.97;5.33;;;;;;;12.67;100.00;100200.31;6253537;28;20231;-72
2023/10/24 14:28:30;;;;;;;6.23;5.50;;;;;;;12.67;100.00;100208.44;6250928;28;20934;-70
2023/10/24 14:31:51;;;;;;;5.83;5.23;;;;;;;12.62;100.00;100208.94;6255220;28;20237;-71
2023/10/24 14:35:14;;;;;;;5.33;4.83;;;;;;;12.60;100.00;100200.13;6248103;28;20310;-70
2023/10/24 14:38:35;;;;;;;4.97;4.53;;;;;;;12.56;100.00;100212.28;6260015;28;20239;-69
2023/10/24 14:41:57;;;;;;;8.37;7.57;;;;;;;12.61;100.00;100214.50;6248360;28;20232;-70
2023/10/24 14:45:20;;;;;;;6.17;5.30;;;;;;;12.51;100.00;100222.78;6248114;28;20235;-71
2023/10/24 14:48:41;;;;;;;7.57;6.60;;;;;;;12.49;100.00;100216.69;6254844;28;20227;-70
2023/10/24 14:52:04;;;;;;;6.17;5.33;;;;;;;12.52;100.00;100226.31;6257856;28;20254;-71
2023/10/24 14:55:25;;;;;;;14.57;5.87;;;;;;;12.56;100.00;100235.78;6251522;28;20229;-70
2023/10/24 14:58:48;;;;;;;8.17;5.40;;;;;;;12.50;100.00;100237.28;6253700;28;20239;-70
2023/10/24 15:02:09;;;;;;;7.57;5.80;;;;;;;12.48;100.00;100235.75;6253174;28;20750;-69
2023/10/24 15:05:30;;;;;;;7.40;6.30;;;;;;;12.54;100.00;100237.81;6248355;28;20653;-69
2023/10/24 15:08:54;;;;;;;6.37;5.33;;;;;;;12.49;100.00;100232.91;6251158;28;20231;-70
2023/10/24 15:12:14;;;;;;;14.40;7.40;;;;;;;12.52;100.00;100237.13;6258595;28;20228;-71
2023/10/24 15:15:35;;;;;;;7.40;6.47;;;;;;;12.50;100.00;100228.31;6249971;28;20227;-70
2023/10/24 15:18:56;;;;;;;5.67;5.27;;;;;;;12.60;100.00;100226.34;6248166;28;20236;-70
2023/10/24 15:22:18;;;;;;;8.57;5.67;;;;;;;12.60;100.00;100229.06;6245700;28;20232;-70
2023/10/24 15:25:40;;;;;;;13.60;5.67;;;;;;;12.59;100.00;100217.38;6250947;28;20251;-71
2023/10/24 15:29:01;;;;;;;8.77;5.97;;;;;;;12.48;100.00;100228.50;6247311;28;20232;-70